sensor_id;sensor_type;location;lat;lon;timestamp;pressure;altitude;pressure_sealevel;temperature;humidity
49915;BME280;35806;47.958;13.158;2023-02-04T00:02:04;95289.14;;;-1.51;96.01
49915;BME280;35806;47.958;13.158;2023-02-04T00:04:31;95288.13;;;-1.39;95.63
49915;BME280;35806;47.958;13.158;2023-02-04T00:06:58;95282.13;;;-1.32;95.46
49915;BME280;35806;47.958;13.158;2023-02-04T00:09:26;95292.62;;;-1.39;95.28
49915;BME280;35806;47.958;13.158;2023-02-04T00:11:53;95275.43;;;-0.95;93.48
49915;BME280;35806;47.958;13.158;2023-02-04T00:14:20;95297.86;;;-1.47;93.81
49915;BME280;35806;47.958;13.158;2023-02-04T00:16:47;95311.45;;;-1.63;96.28
49915;BME280;35806;47.958;13.158;2023-02-04T00:19:14;95310.15;;;-1.34;95.71
49915;BME280;35806;47.958;13.158;2023-02-04T00:21:41;95310.61;;;-1.77;97.03
49915;BME280;35806;47.958;13.158;2023-02-04T00:24:08;95306.16;;;-1.86;97.11
49915;BME280;35806;47.958;13.158;2023-02-04T00:26:34;95304.65;;;-1.79;97.78
49915;BME280;35806;47.958;13.158;2023-02-04T00:29:01;95302.33;;;-1.75;97.43
49915;BME280;35806;47.958;13.158;2023-02-04T00:31:28;95297.23;;;-1.49;97.89
49915;BME280;35806;47.958;13.158;2023-02-04T00:33:55;95293.22;;;-1.29;96.78
49915;BME280;35806;47.958;13.158;2023-02-04T00:36:23;95290.80;;;-1.28;96.23
49915;BME280;35806;47.958;13.158;2023-02-04T00:38:49;95292.34;;;-1.73;97.86
49915;BME280;35806;47.958;13.158;2023-02-04T00:41:16;95295.02;;;-1.00;94.97
49915;BME280;35806;47.958;13.158;2023-02-04T00:43:43;95294.53;;;-1.30;94.78
49915;BME280;35806;47.958;13.158;2023-02-04T00:46:10;95300.13;;;-1.56;97.01
49915;BME280;35806;47.958;13.158;2023-02-04T00:48:38;95295.17;;;-1.32;97.00
49915;BME280;35806;47.958;13.158;2023-02-04T00:51:05;95296.55;;;-1.19;96.07
49915;BME280;35806;47.958;13.158;2023-02-04T00:53:32;95293.38;;;-1.11;95.77
49915;BME280;35806;47.958;13.158;2023-02-04T00:55:59;95306.05;;;-1.24;96.52
49915;BME280;35806;47.958;13.158;2023-02-04T00:58:27;95295.46;;;-1.14;95.61
49915;BME280;35806;47.958;13.158;2023-02-04T01:00:53;95297.48;;;-1.48;94.70
49915;BME280;35806;47.958;13.158;2023-02-04T01:03:25;95292.48;;;-1.43;95.22
49915;BME280;35806;47.958;13.158;2023-02-04T01:05:52;95295.09;;;-1.16;94.18
49915;BME280;35806;47.958;13.158;2023-02-04T01:08:20;95294.60;;;-1.51;93.42
49915;BME280;35806;47.958;13.158;2023-02-04T01:10:47;95309.73;;;-1.51;94.06
49915;BME280;35806;47.958;13.158;2023-02-04T01:13:13;95314.24;;;-1.51;93.99
49915;BME280;35806;47.958;13.158;2023-02-04T01:15:40;95314.16;;;-1.49;93.35
49915;BME280;35806;47.958;13.158;2023-02-04T01:18:07;95312.37;;;-1.29;93.63
49915;BME280;35806;47.958;13.158;2023-02-04T01:20:34;95306.30;;;-1.08;92.40
49915;BME280;35806;47.958;13.158;2023-02-04T01:23:01;95314.83;;;-1.18;91.83
49915;BME280;35806;47.958;13.158;2023-02-04T01:25:28;95313.42;;;-1.29;92.87
49915;BME280;35806;47.958;13.158;2023-02-04T01:27:55;95317.53;;;-1.42;91.46
49915;BME280;35806;47.958;13.158;2023-02-04T01:30:22;95324.86;;;-0.92;90.87
49915;BME280;35806;47.958;13.158;2023-02-04T01:32:49;95329.99;;;-1.09;90.72
49915;BME280;35806;47.958;13.158;2023-02-04T01:35:16;95331.59;;;-0.87;88.74
49915;BME280;35806;47.958;13.158;2023-02-04T01:37:42;95331.27;;;-0.98;89.14
49915;BME280;35806;47.958;13.158;2023-02-04T01:40:10;95329.64;;;-1.13;89.55
49915;BME280;35806;47.958;13.158;2023-02-04T01:42:39;95332.02;;;-0.98;90.41
49915;BME280;35806;47.958;13.158;2023-02-04T01:45:07;95336.30;;;-0.86;89.46
49915;BME280;35806;47.958;13.158;2023-02-04T01:47:35;95346.03;;;-1.10;89.64
49915;BME280;35806;47.958;13.158;2023-02-04T01:50:03;95351.42;;;-1.07;89.52
49915;BME280;35806;47.958;13.158;2023-02-04T01:52:34;95357.18;;;-1.22;89.46
49915;BME280;35806;47.958;13.158;2023-02-04T01:55:02;95361.32;;;-0.95;87.42
49915;BME280;35806;47.958;13.158;2023-02-04T01:57:30;95372.85;;;-1.03;88.05
49915;BME280;35806;47.958;13.158;2023-02-04T01:59:58;95373.71;;;-0.66;87.42
49915;BME280;35806;47.958;13.158;2023-02-04T02:15:47;95387.34;;;-2.43;82.69
49915;BME280;35806;47.958;13.158;2023-02-04T02:18:14;95388.14;;;-1.09;83.27
49915;BME280;35806;47.958;13.158;2023-02-04T02:20:43;95386.96;;;-0.62;81.63
49915;BME280;35806;47.958;13.158;2023-02-04T02:23:21;95398.38;;;-0.83;80.61
49915;BME280;35806;47.958;13.158;2023-02-04T02:25:50;95395.86;;;-0.96;82.16
49915;BME280;35806;47.958;13.158;2023-02-04T02:28:19;95391.93;;;-0.85;81.92
49915;BME280;35806;47.958;13.158;2023-02-04T02:30:48;95400.96;;;-0.76;81.17
49915;BME280;35806;47.958;13.158;2023-02-04T02:33:18;95408.96;;;-0.71;81.38
49915;BME280;35806;47.958;13.158;2023-02-04T02:35:46;95412.35;;;-1.22;81.66
49915;BME280;35806;47.958;13.158;2023-02-04T02:38:14;95412.71;;;-1.23;82.60
49915;BME280;35806;47.958;13.158;2023-02-04T02:40:42;95420.19;;;-1.15;83.78
49915;BME280;35806;47.958;13.158;2023-02-04T02:43:13;95422.36;;;-1.25;84.10
49915;BME280;35806;47.958;13.158;2023-02-04T02:45:47;95422.79;;;-0.71;83.45
49915;BME280;35806;47.958;13.158;2023-02-04T02:48:15;95421.63;;;-1.08;84.44
49915;BME280;35806;47.958;13.158;2023-02-04T02:50:43;95428.08;;;-0.70;82.02
49915;BME280;35806;47.958;13.158;2023-02-04T02:53:12;95437.81;;;-1.33;84.37
49915;BME280;35806;47.958;13.158;2023-02-04T02:55:40;95444.89;;;-0.95;84.38
49915;BME280;35806;47.958;13.158;2023-02-04T02:58:13;95451.51;;;-1.08;81.98
49915;BME280;35806;47.958;13.158;2023-02-04T03:00:41;95453.57;;;-0.66;79.30
49915;BME280;35806;47.958;13.158;2023-02-04T03:03:13;95450.11;;;-0.68;79.47
49915;BME280;35806;47.958;13.158;2023-02-04T03:05:45;95451.79;;;-1.27;81.76
49915;BME280;35806;47.958;13.158;2023-02-04T03:08:14;95454.05;;;-0.94;82.24
49915;BME280;35806;47.958;13.158;2023-02-04T03:10:43;95458.99;;;-1.16;83.06
49915;BME280;35806;47.958;13.158;2023-02-04T03:13:11;95464.94;;;-0.89;82.31
49915;BME280;35806;47.958;13.158;2023-02-04T03:15:40;95471.15;;;-1.25;81.47
49915;BME280;35806;47.958;13.158;2023-02-04T03:18:09;95464.79;;;-0.81;80.22
49915;BME280;35806;47.958;13.158;2023-02-04T03:20:38;95470.73;;;-0.69;79.95
49915;BME280;35806;47.958;13.158;2023-02-04T03:23:05;95492.13;;;-0.54;79.88
49915;BME280;35806;47.958;13.158;2023-02-04T03:25:33;95500.17;;;-0.64;80.25
49915;BME280;35806;47.958;13.158;2023-02-04T03:28:01;95522.26;;;-0.55;80.98
49915;BME280;35806;47.958;13.158;2023-02-04T03:30:28;95514.97;;;-1.16;81.92
49915;BME280;35806;47.958;13.158;2023-02-04T03:32:55;95517.70;;;-0.63;80.39
49915;BME280;35806;47.958;13.158;2023-02-04T03:35:22;95526.14;;;-1.18;81.71
49915;BME280;35806;47.958;13.158;2023-02-04T03:37:48;95528.27;;;-1.53;84.10
49915;BME280;35806;47.958;13.158;2023-02-04T03:40:16;95531.38;;;-1.22;83.16
49915;BME280;35806;47.958;13.158;2023-02-04T03:42:43;95533.29;;;-1.00;82.21
49915;BME280;35806;47.958;13.158;2023-02-04T03:45:10;95538.04;;;-0.85;80.63
49915;BME280;35806;47.958;13.158;2023-02-04T03:47:38;95547.00;;;-0.76;79.98
49915;BME280;35806;47.958;13.158;2023-02-04T03:50:05;95545.52;;;-0.90;80.90
49915;BME280;35806;47.958;13.158;2023-02-04T03:52:32;95559.32;;;-1.36;81.99
49915;BME280;35806;47.958;13.158;2023-02-04T03:54:59;95552.14;;;-0.93;80.85
49915;BME280;35806;47.958;13.158;2023-02-04T03:57:26;95552.29;;;-1.66;84.01
49915;BME280;35806;47.958;13.158;2023-02-04T03:59:53;95555.46;;;-2.01;84.24
49915;BME280;35806;47.958;13.158;2023-02-04T04:02:20;95553.58;;;-1.63;84.19
49915;BME280;35806;47.958;13.158;2023-02-04T04:04:47;95552.99;;;-1.96;85.56
49915;BME280;35806;47.958;13.158;2023-02-04T04:07:14;95560.77;;;-2.05;87.03
49915;BME280;35806;47.958;13.158;2023-02-04T04:09:41;95550.68;;;-1.96;86.12
49915;BME280;35806;47.958;13.158;2023-02-04T04:12:09;95552.41;;;-2.11;88.39
49915;BME280;35806;47.958;13.158;2023-02-04T04:14:36;95556.34;;;-2.50;88.34
49915;BME280;35806;47.958;13.158;2023-02-04T04:17:02;95553.98;;;-2.30;85.91
49915;BME280;35806;47.958;13.158;2023-02-04T04:19:29;95573.53;;;-2.26;88.17
49915;BME280;35806;47.958;13.158;2023-02-04T04:21:57;95573.00;;;-2.43;88.48
49915;BME280;35806;47.958;13.158;2023-02-04T04:24:25;95568.58;;;-2.16;87.93
49915;BME280;35806;47.958;13.158;2023-02-04T04:26:53;95574.06;;;-2.59;88.03
49915;BME280;35806;47.958;13.158;2023-02-04T04:29:20;95564.90;;;-2.34;87.53
49915;BME280;35806;47.958;13.158;2023-02-04T04:31:47;95567.18;;;-2.39;85.71
49915;BME280;35806;47.958;13.158;2023-02-04T04:34:14;95563.48;;;-2.05;84.68
49915;BME280;35806;47.958;13.158;2023-02-04T04:36:42;95563.19;;;-2.40;84.25
49915;BME280;35806;47.958;13.158;2023-02-04T04:39:09;95566.14;;;-2.47;84.00
49915;BME280;35806;47.958;13.158;2023-02-04T04:41:37;95568.79;;;-2.49;83.13
49915;BME280;35806;47.958;13.158;2023-02-04T04:44:04;95568.25;;;-2.34;82.62
49915;BME280;35806;47.958;13.158;2023-02-04T04:46:31;95572.18;;;-2.39;82.77
49915;BME280;35806;47.958;13.158;2023-02-04T04:48:58;95581.68;;;-2.44;82.19
49915;BME280;35806;47.958;13.158;2023-02-04T04:51:25;95586.76;;;-2.12;81.70
49915;BME280;35806;47.958;13.158;2023-02-04T04:53:51;95586.88;;;-2.20;81.73
49915;BME280;35806;47.958;13.158;2023-02-04T04:56:18;95591.41;;;-1.31;78.43
49915;BME280;35806;47.958;13.158;2023-02-04T04:58:45;95591.80;;;-2.48;79.27
49915;BME280;35806;47.958;13.158;2023-02-04T05:01:12;95585.77;;;-1.70;78.75
49915;BME280;35806;47.958;13.158;2023-02-04T05:03:39;95590.22;;;-1.97;80.49
49915;BME280;35806;47.958;13.158;2023-02-04T05:06:06;95597.20;;;-1.83;79.40
49915;BME280;35806;47.958;13.158;2023-02-04T05:08:32;95598.57;;;-1.86;79.10
49915;BME280;35806;47.958;13.158;2023-02-04T05:11:00;95606.06;;;-1.69;80.02
49915;BME280;35806;47.958;13.158;2023-02-04T05:13:27;95603.26;;;-1.39;77.66
49915;BME280;35806;47.958;13.158;2023-02-04T05:15:55;95608.47;;;-1.93;79.02
49915;BME280;35806;47.958;13.158;2023-02-04T05:18:22;95607.52;;;-1.94;79.07
49915;BME280;35806;47.958;13.158;2023-02-04T05:20:50;95605.75;;;-1.80;79.43
49915;BME280;35806;47.958;13.158;2023-02-04T05:23:17;95605.89;;;-1.83;77.58
49915;BME280;35806;47.958;13.158;2023-02-04T05:25:44;95606.95;;;-2.24;75.80
49915;BME280;35806;47.958;13.158;2023-02-04T05:28:11;95616.91;;;-1.95;76.15
49915;BME280;35806;47.958;13.158;2023-02-04T05:30:38;95626.49;;;-1.61;75.04
49915;BME280;35806;47.958;13.158;2023-02-04T05:33:05;95630.52;;;-1.51;76.10
49915;BME280;35806;47.958;13.158;2023-02-04T05:35:32;95632.73;;;-1.44;75.58
49915;BME280;35806;47.958;13.158;2023-02-04T05:37:59;95634.58;;;-1.70;76.06
49915;BME280;35806;47.958;13.158;2023-02-04T05:40:27;95637.08;;;-1.70;74.68
49915;BME280;35806;47.958;13.158;2023-02-04T05:42:54;95630.92;;;-1.66;75.95
49915;BME280;35806;47.958;13.158;2023-02-04T05:45:21;95637.79;;;-1.36;71.81
49915;BME280;35806;47.958;13.158;2023-02-04T05:47:52;95641.16;;;-1.87;74.93
49915;BME280;35806;47.958;13.158;2023-02-04T05:50:20;95647.58;;;-1.46;74.34
49915;BME280;35806;47.958;13.158;2023-02-04T05:52:46;95651.07;;;-1.85;74.04
49915;BME280;35806;47.958;13.158;2023-02-04T05:55:13;95658.00;;;-1.65;73.43
49915;BME280;35806;47.958;13.158;2023-02-04T05:57:41;95661.02;;;-1.49;73.84
49915;BME280;35806;47.958;13.158;2023-02-04T06:00:11;95664.70;;;-1.80;73.56
49915;BME280;35806;47.958;13.158;2023-02-04T06:02:38;95664.23;;;-1.68;74.03
49915;BME280;35806;47.958;13.158;2023-02-04T06:05:05;95664.12;;;-1.89;74.53
49915;BME280;35806;47.958;13.158;2023-02-04T06:07:32;95668.23;;;-1.56;72.63
49915;BME280;35806;47.958;13.158;2023-02-04T06:09:59;95676.96;;;-1.56;73.57
49915;BME280;35806;47.958;13.158;2023-02-04T06:12:27;95670.60;;;-1.51;72.92
49915;BME280;35806;47.958;13.158;2023-02-04T06:14:54;95678.57;;;-1.78;73.24
49915;BME280;35806;47.958;13.158;2023-02-04T06:17:20;95671.41;;;-1.59;72.53
49915;BME280;35806;47.958;13.158;2023-02-04T06:19:47;95674.55;;;-1.59;72.40
49915;BME280;35806;47.958;13.158;2023-02-04T06:22:14;95685.89;;;-1.27;70.87
49915;BME280;35806;47.958;13.158;2023-02-04T06:24:41;95693.84;;;-1.18;71.99
49915;BME280;35806;47.958;13.158;2023-02-04T06:27:09;95694.65;;;-1.62;72.20
49915;BME280;35806;47.958;13.158;2023-02-04T06:29:36;95704.20;;;-1.78;72.33
49915;BME280;35806;47.958;13.158;2023-02-04T06:32:02;95710.33;;;-1.17;71.81
49915;BME280;35806;47.958;13.158;2023-02-04T06:34:30;95703.14;;;-1.56;71.87
49915;BME280;35806;47.958;13.158;2023-02-04T06:36:57;95707.35;;;-1.47;70.27
49915;BME280;35806;47.958;13.158;2023-02-04T06:39:24;95713.88;;;-0.47;69.55
49915;BME280;35806;47.958;13.158;2023-02-04T06:41:50;95724.51;;;-0.66;70.08
49915;BME280;35806;47.958;13.158;2023-02-04T06:44:17;95724.96;;;-1.24;70.78
49915;BME280;35806;47.958;13.158;2023-02-04T06:46:44;95741.04;;;-1.54;71.39
49915;BME280;35806;47.958;13.158;2023-02-04T06:49:11;95734.14;;;-0.91;71.19
49915;BME280;35806;47.958;13.158;2023-02-04T06:51:38;95738.34;;;-1.50;71.56
49915;BME280;35806;47.958;13.158;2023-02-04T06:54:05;95744.68;;;-1.11;71.78
49915;BME280;35806;47.958;13.158;2023-02-04T06:56:32;95747.68;;;-1.33;70.97
49915;BME280;35806;47.958;13.158;2023-02-04T06:58:59;95756.38;;;-1.31;72.71
49915;BME280;35806;47.958;13.158;2023-02-04T07:01:27;95761.51;;;-1.89;74.92
49915;BME280;35806;47.958;13.158;2023-02-04T07:03:54;95769.74;;;-1.94;74.42
49915;BME280;35806;47.958;13.158;2023-02-04T07:06:22;95766.91;;;-1.18;72.39
49915;BME280;35806;47.958;13.158;2023-02-04T07:08:49;95770.31;;;-1.74;73.81
49915;BME280;35806;47.958;13.158;2023-02-04T07:11:16;95770.16;;;-1.26;73.77
49915;BME280;35806;47.958;13.158;2023-02-04T07:13:43;95777.71;;;-1.49;74.07
49915;BME280;35806;47.958;13.158;2023-02-04T07:16:10;95771.63;;;-1.24;73.80
49915;BME280;35806;47.958;13.158;2023-02-04T07:18:38;95768.00;;;-0.18;70.35
49915;BME280;35806;47.958;13.158;2023-02-04T07:21:05;95772.55;;;0.05;68.31
49915;BME280;35806;47.958;13.158;2023-02-04T07:23:32;95769.94;;;-0.25;68.95
49915;BME280;35806;47.958;13.158;2023-02-04T07:25:59;95782.08;;;-0.48;70.22
49915;BME280;35806;47.958;13.158;2023-02-04T07:28:26;95787.20;;;-1.24;72.56
49915;BME280;35806;47.958;13.158;2023-02-04T07:30:53;95793.32;;;-0.78;72.64
49915;BME280;35806;47.958;13.158;2023-02-04T07:33:20;95809.20;;;-1.51;75.42
49915;BME280;35806;47.958;13.158;2023-02-04T07:35:47;95810.89;;;-1.99;77.16
49915;BME280;35806;47.958;13.158;2023-02-04T07:38:14;95829.50;;;-1.89;77.49
49915;BME280;35806;47.958;13.158;2023-02-04T07:40:42;95863.15;;;-1.28;75.63
49915;BME280;35806;47.958;13.158;2023-02-04T07:43:09;95870.16;;;-1.01;75.49
49915;BME280;35806;47.958;13.158;2023-02-04T07:45:36;95881.09;;;-1.60;74.99
49915;BME280;35806;47.958;13.158;2023-02-04T07:48:04;95876.81;;;-2.27;78.68
49915;BME280;35806;47.958;13.158;2023-02-04T07:50:31;95886.57;;;-1.81;77.84
49915;BME280;35806;47.958;13.158;2023-02-04T07:52:59;95888.31;;;-1.64;77.45
49915;BME280;35806;47.958;13.158;2023-02-04T07:55:26;95895.87;;;-1.93;77.94
49915;BME280;35806;47.958;13.158;2023-02-04T07:57:53;95910.36;;;-2.19;77.40
49915;BME280;35806;47.958;13.158;2023-02-04T08:00:21;95910.67;;;-1.73;76.36
49915;BME280;35806;47.958;13.158;2023-02-04T08:02:48;95916.20;;;-1.74;76.27
49915;BME280;35806;47.958;13.158;2023-02-04T08:05:15;95921.67;;;-1.71;75.25
49915;BME280;35806;47.958;13.158;2023-02-04T08:07:43;95926.23;;;-1.74;74.88
49915;BME280;35806;47.958;13.158;2023-02-04T08:10:11;95927.40;;;-0.69;72.76
49915;BME280;35806;47.958;13.158;2023-02-04T08:12:39;95925.68;;;-0.18;71.18
49915;BME280;35806;47.958;13.158;2023-02-04T08:15:06;95931.90;;;-1.45;74.89
49915;BME280;35806;47.958;13.158;2023-02-04T08:17:34;95937.71;;;-1.11;73.19
49915;BME280;35806;47.958;13.158;2023-02-04T08:20:01;95938.08;;;-1.05;74.10
49915;BME280;35806;47.958;13.158;2023-02-04T08:22:28;95941.54;;;-1.31;74.41
49915;BME280;35806;47.958;13.158;2023-02-04T08:24:55;95948.39;;;-2.14;77.57
49915;BME280;35806;47.958;13.158;2023-02-04T08:27:22;95944.88;;;-1.86;77.00
49915;BME280;35806;47.958;13.158;2023-02-04T08:29:49;95947.48;;;-2.04;76.85
49915;BME280;35806;47.958;13.158;2023-02-04T08:32:17;95948.25;;;-1.79;76.32
49915;BME280;35806;47.958;13.158;2023-02-04T08:34:44;95947.57;;;-1.47;75.51
49915;BME280;35806;47.958;13.158;2023-02-04T08:37:11;95952.76;;;-1.95;76.82
49915;BME280;35806;47.958;13.158;2023-02-04T08:39:38;95950.86;;;-0.73;74.18
49915;BME280;35806;47.958;13.158;2023-02-04T08:42:05;95952.19;;;-0.07;70.52
49915;BME280;35806;47.958;13.158;2023-02-04T08:44:32;95961.22;;;0.04;70.87
49915;BME280;35806;47.958;13.158;2023-02-04T08:46:58;95966.91;;;0.50;68.56
49915;BME280;35806;47.958;13.158;2023-02-04T08:49:25;95971.93;;;0.93;66.57
49915;BME280;35806;47.958;13.158;2023-02-04T08:51:52;95973.46;;;0.64;65.77
49915;BME280;35806;47.958;13.158;2023-02-04T08:54:19;95977.67;;;-0.42;68.92
49915;BME280;35806;47.958;13.158;2023-02-04T08:56:47;95976.82;;;-0.64;69.28
49915;BME280;35806;47.958;13.158;2023-02-04T08:59:14;95976.84;;;-0.42;69.36
49915;BME280;35806;47.958;13.158;2023-02-04T09:01:42;95975.78;;;-0.19;68.90
49915;BME280;35806;47.958;13.158;2023-02-04T09:04:09;95988.58;;;-1.37;71.36
49915;BME280;35806;47.958;13.158;2023-02-04T09:06:35;95985.76;;;-0.45;70.04
49915;BME280;35806;47.958;13.158;2023-02-04T09:09:02;95993.72;;;-1.03;70.44
49915;BME280;35806;47.958;13.158;2023-02-04T09:11:30;95997.23;;;-0.77;71.00
49915;BME280;35806;47.958;13.158;2023-02-04T09:13:58;96003.42;;;-0.88;70.67
49915;BME280;35806;47.958;13.158;2023-02-04T09:16:24;96007.22;;;-1.60;73.45
49915;BME280;35806;47.958;13.158;2023-02-04T09:18:51;96010.79;;;-1.37;72.69
49915;BME280;35806;47.958;13.158;2023-02-04T09:21:18;96022.16;;;-0.89;70.17
49915;BME280;35806;47.958;13.158;2023-02-04T09:23:45;96029.70;;;-1.21;69.78
49915;BME280;35806;47.958;13.158;2023-02-04T09:26:12;96039.69;;;-1.07;70.47
49915;BME280;35806;47.958;13.158;2023-02-04T09:28:39;96046.55;;;-1.00;69.51
49915;BME280;35806;47.958;13.158;2023-02-04T09:31:05;96054.88;;;-0.47;69.49
49915;BME280;35806;47.958;13.158;2023-02-04T09:33:33;96055.41;;;-0.71;69.51
49915;BME280;35806;47.958;13.158;2023-02-04T09:36:01;96058.38;;;-0.91;70.39
49915;BME280;35806;47.958;13.158;2023-02-04T09:38:29;96061.23;;;-1.89;72.02
49915;BME280;35806;47.958;13.158;2023-02-04T09:41:00;96060.51;;;-1.59;71.65
49915;BME280;35806;47.958;13.158;2023-02-04T09:43:30;96066.93;;;-1.23;70.14
49915;BME280;35806;47.958;13.158;2023-02-04T09:45:59;96073.53;;;-1.77;71.72
49915;BME280;35806;47.958;13.158;2023-02-04T09:48:26;96074.97;;;-1.83;71.54
49915;BME280;35806;47.958;13.158;2023-02-04T09:51:02;96074.64;;;-1.18;71.50
49915;BME280;35806;47.958;13.158;2023-02-04T09:53:31;96083.52;;;-1.67;71.78
49915;BME280;35806;47.958;13.158;2023-02-04T09:55:58;96087.79;;;-1.21;69.89
49915;BME280;35806;47.958;13.158;2023-02-04T09:58:30;96093.10;;;-0.91;69.23
49915;BME280;35806;47.958;13.158;2023-02-04T10:01:08;96101.40;;;-0.65;69.17
49915;BME280;35806;47.958;13.158;2023-02-04T10:03:38;96107.13;;;-1.06;68.76
49915;BME280;35806;47.958;13.158;2023-02-04T10:06:07;96116.22;;;-1.13;70.58
49915;BME280;35806;47.958;13.158;2023-02-04T10:08:35;96116.46;;;-0.99;70.04
49915;BME280;35806;47.958;13.158;2023-02-04T10:11:03;96118.82;;;-0.73;68.50
49915;BME280;35806;47.958;13.158;2023-02-04T10:13:32;96121.06;;;-0.12;67.57
49915;BME280;35806;47.958;13.158;2023-02-04T10:16:01;96124.06;;;-1.06;69.53
49915;BME280;35806;47.958;13.158;2023-02-04T10:18:32;96130.32;;;-2.10;70.87
49915;BME280;35806;47.958;13.158;2023-02-04T10:21:12;96131.68;;;-2.07;72.68
49915;BME280;35806;47.958;13.158;2023-02-04T10:23:41;96129.68;;;-1.49;71.42
49915;BME280;35806;47.958;13.158;2023-02-04T10:26:10;96129.14;;;-1.49;70.51
49915;BME280;35806;47.958;13.158;2023-02-04T10:28:39;96132.63;;;-1.86;71.72
49915;BME280;35806;47.958;13.158;2023-02-04T10:31:09;96128.26;;;-0.72;71.60
49915;BME280;35806;47.958;13.158;2023-02-04T10:34:02;96136.39;;;-0.86;71.33
49915;BME280;35806;47.958;13.158;2023-02-04T10:36:46;96133.55;;;-1.06;70.29
49915;BME280;35806;47.958;13.158;2023-02-04T10:39:15;96122.40;;;0.16;70.12
49915;BME280;35806;47.958;13.158;2023-02-04T10:41:45;96126.60;;;-0.52;68.46
49915;BME280;35806;47.958;13.158;2023-02-04T10:44:15;96120.24;;;0.93;68.28
49915;BME280;35806;47.958;13.158;2023-02-04T10:46:42;96118.43;;;1.38;65.76
49915;BME280;35806;47.958;13.158;2023-02-04T10:49:20;96121.99;;;-0.14;65.26
49915;BME280;35806;47.958;13.158;2023-02-04T10:51:49;96120.06;;;0.54;65.43
49915;BME280;35806;47.958;13.158;2023-02-04T10:54:19;96123.04;;;0.76;63.00
49915;BME280;35806;47.958;13.158;2023-02-04T10:56:46;96129.15;;;-1.24;67.61
49915;BME280;35806;47.958;13.158;2023-02-04T10:59:21;96127.69;;;-1.13;69.03
49915;BME280;35806;47.958;13.158;2023-02-04T11:01:49;96132.61;;;-1.80;68.31
49915;BME280;35806;47.958;13.158;2023-02-04T11:04:15;96136.08;;;-2.19;72.23
49915;BME280;35806;47.958;13.158;2023-02-04T11:06:43;96133.14;;;-2.07;72.01
49915;BME280;35806;47.958;13.158;2023-02-04T11:09:12;96132.24;;;-1.49;72.80
49915;BME280;35806;47.958;13.158;2023-02-04T11:11:45;96132.77;;;-1.72;71.25
49915;BME280;35806;47.958;13.158;2023-02-04T11:14:29;96131.18;;;-2.07;72.82
49915;BME280;35806;47.958;13.158;2023-02-04T11:16:57;96121.71;;;-0.71;70.79
49915;BME280;35806;47.958;13.158;2023-02-04T11:19:35;96122.65;;;-1.73;72.02
49915;BME280;35806;47.958;13.158;2023-02-04T11:22:06;96121.63;;;-2.10;73.78
49915;BME280;35806;47.958;13.158;2023-02-04T11:24:34;96119.46;;;-1.93;74.68
49915;BME280;35806;47.958;13.158;2023-02-04T11:27:16;96117.72;;;-2.15;74.70
49915;BME280;35806;47.958;13.158;2023-02-04T11:29:44;96109.13;;;-0.67;72.19
49915;BME280;35806;47.958;13.158;2023-02-04T11:32:28;96104.59;;;-0.73;71.63
49915;BME280;35806;47.958;13.158;2023-02-04T11:35:15;96108.23;;;-0.70;71.62
49915;BME280;35806;47.958;13.158;2023-02-04T11:37:46;96119.42;;;-2.44;75.21
49915;BME280;35806;47.958;13.158;2023-02-04T11:40:31;96112.17;;;0.22;69.11
49915;BME280;35806;47.958;13.158;2023-02-04T11:43:02;96108.58;;;0.40;67.33
49915;BME280;35806;47.958;13.158;2023-02-04T11:45:32;96111.23;;;-0.77;68.22
49915;BME280;35806;47.958;13.158;2023-02-04T11:48:02;96112.43;;;-1.50;71.36
49915;BME280;35806;47.958;13.158;2023-02-04T11:50:32;96109.18;;;-0.17;71.47
49915;BME280;35806;47.958;13.158;2023-02-04T11:53:00;96104.53;;;-0.20;70.32
49915;BME280;35806;47.958;13.158;2023-02-04T11:55:29;96110.61;;;0.66;67.91
49915;BME280;35806;47.958;13.158;2023-02-04T11:57:57;96105.57;;;1.14;67.25
49915;BME280;35806;47.958;13.158;2023-02-04T12:00:27;96106.14;;;1.12;66.64
49915;BME280;35806;47.958;13.158;2023-02-04T12:02:58;96108.41;;;1.92;64.71
49915;BME280;35806;47.958;13.158;2023-02-04T12:05:46;96103.19;;;2.75;63.78
49915;BME280;35806;47.958;13.158;2023-02-04T12:08:25;96099.55;;;3.45;61.83
49915;BME280;35806;47.958;13.158;2023-02-04T12:11:01;96101.72;;;3.73;58.19
49915;BME280;35806;47.958;13.158;2023-02-04T12:13:29;96100.39;;;3.81;57.59
49915;BME280;35806;47.958;13.158;2023-02-04T12:16:00;96104.46;;;3.99;56.26
49915;BME280;35806;47.958;13.158;2023-02-04T12:18:31;96107.34;;;3.31;57.40
49915;BME280;35806;47.958;13.158;2023-02-04T12:21:00;96105.84;;;3.13;57.28
49915;BME280;35806;47.958;13.158;2023-02-04T12:23:28;96105.14;;;3.25;58.00
49915;BME280;35806;47.958;13.158;2023-02-04T12:25:57;96107.19;;;3.84;57.15
49915;BME280;35806;47.958;13.158;2023-02-04T12:28:25;96111.42;;;0.91;60.08
49915;BME280;35806;47.958;13.158;2023-02-04T12:30:52;96111.88;;;0.44;62.95
49915;BME280;35806;47.958;13.158;2023-02-04T12:33:20;96114.14;;;-0.68;67.07
49915;BME280;35806;47.958;13.158;2023-02-04T12:35:47;96111.86;;;-1.09;67.46
49915;BME280;35806;47.958;13.158;2023-02-04T12:38:20;96110.06;;;-1.12;68.19
49915;BME280;35806;47.958;13.158;2023-02-04T12:40:48;96108.73;;;0.71;64.53
49915;BME280;35806;47.958;13.158;2023-02-04T12:43:15;96106.79;;;0.40;61.07
49915;BME280;35806;47.958;13.158;2023-02-04T12:45:44;96112.66;;;-0.73;64.94
49915;BME280;35806;47.958;13.158;2023-02-04T12:48:11;96113.17;;;0.54;59.73
49915;BME280;35806;47.958;13.158;2023-02-04T12:50:38;96114.49;;;0.22;56.07
49915;BME280;35806;47.958;13.158;2023-02-04T12:53:06;96116.26;;;-0.35;56.99
49915;BME280;35806;47.958;13.158;2023-02-04T12:55:33;96110.79;;;0.74;53.64
49915;BME280;35806;47.958;13.158;2023-02-04T12:58:01;96111.07;;;1.00;53.81
49915;BME280;35806;47.958;13.158;2023-02-04T13:00:28;96112.99;;;-0.10;54.31
49915;BME280;35806;47.958;13.158;2023-02-04T13:02:55;96111.95;;;0.19;53.85
49915;BME280;35806;47.958;13.158;2023-02-04T13:05:22;96113.03;;;0.78;53.33
49915;BME280;35806;47.958;13.158;2023-02-04T13:07:50;96120.45;;;-0.30;55.39
49915;BME280;35806;47.958;13.158;2023-02-04T13:10:17;96119.10;;;0.43;54.17